Terminal Aerodrome Forecast
Issued by NWS Charleston, WV

Current Version | Previous Version | Graphics & Text | Print | Product List | Glossary On
Versions: 1 2 3 4 5 6 7 8 9 10 11 12 13 14 15 16 17 18 19
000
FTUS41 KRLX 251700 RRA
TAFEKN
TAF
KEKN 251745Z 2518/2618 27013G22KT P6SM OVC020
     FM252100 27010G17KT P6SM OVC025
     FM260000 26006KT P6SM BKN025
     FM260400 VRB02KT P6SM BKN035
     FM260600 00000KT P6SM SCT035
     FM261200 00000KT 6SM BR SKC
     FM261400 23003KT P6SM SKC=

USA.gov is the U.S. government's official web portal to all federal, state and local government web resources and services.